Time;durP1;ratioP1;P1;durP2;ratioP2;P2;SDS_P1;SDS_P2;PMS_P1;PMS_P2;Temp;Humidity;BMP_temperature;BMP_pressure;BME280_temperature;BME280_humidity;BME280_pressure;Samples;Min_cycle;Max_cycle;Signal;HPM_P1;HPM_P2
2023/04/04 00:00:39;;;;;;;1.13;0.65;;;;;;;7.41;100.00;93205.97;5102981;28;20753;-75
2023/04/04 00:03:06;;;;;;;0.93;0.90;;;;;;;7.44;100.00;93206.06;5101585;28;20885;-75
2023/04/04 00:05:34;;;;;;;1.63;0.95;;;;;;;7.52;100.00;93212.44;5095435;28;20278;-75
2023/04/04 00:08:00;;;;;;;1.70;1.30;;;;;;;7.48;100.00;93212.34;5096521;28;20199;-75
2023/04/04 00:10:29;;;;;;;1.58;1.13;;;;;;;7.59;100.00;93212.63;5102659;28;20230;-75
2023/04/04 00:12:56;;;;;;;3.53;0.85;;;;;;;7.66;100.00;93217.41;5102266;28;20266;-75
2023/04/04 00:15:22;;;;;;;0.93;0.93;;;;;;;7.71;100.00;93219.88;5081893;28;20276;-76
2023/04/04 00:17:49;;;;;;;1.05;0.77;;;;;;;7.74;100.00;93221.91;5095074;28;20244;-76
2023/04/04 00:20:16;;;;;;;0.80;0.80;;;;;;;7.78;100.00;93226.25;5088987;28;20244;-75
2023/04/04 00:22:43;;;;;;;1.17;0.88;;;;;;;7.82;100.00;93227.13;5102126;28;20205;-75
2023/04/04 00:25:09;;;;;;;1.00;1.00;;;;;;;7.77;100.00;93213.91;5082519;28;20206;-75
2023/04/04 00:27:37;;;;;;;1.13;1.02;;;;;;;7.89;100.00;93221.16;5105254;28;20202;-75
2023/04/04 00:30:05;;;;;;;0.80;0.80;;;;;;;7.90;100.00;93221.94;5088412;28;20725;-76
2023/04/04 00:32:32;;;;;;;0.73;0.73;;;;;;;7.89;100.00;93204.19;5073567;28;20285;-76
2023/04/04 00:34:58;;;;;;;0.60;0.60;;;;;;;7.95;100.00;93197.41;5082846;28;20298;-75
2023/04/04 00:37:26;;;;;;;1.38;1.27;;;;;;;7.95;100.00;93202.78;5094742;28;20206;-74
2023/04/04 00:39:53;;;;;;;1.08;0.98;;;;;;;7.91;100.00;93194.63;5100785;28;20251;-74
2023/04/04 00:42:20;;;;;;;1.65;0.77;;;;;;;7.81;100.00;93198.59;5101890;28;20655;-75
2023/04/04 00:44:48;;;;;;;1.15;1.05;;;;;;;7.82;100.00;93186.69;5079769;28;20286;-75
2023/04/04 00:47:15;;;;;;;1.17;1.05;;;;;;;7.82;100.00;93194.78;5097039;28;20686;-76
2023/04/04 00:49:42;;;;;;;1.60;1.20;;;;;;;7.84;100.00;93181.75;5096745;28;20885;-76
2023/04/04 00:52:09;;;;;;;2.00;1.60;;;;;;;7.85;100.00;93183.31;5094525;28;20279;-75
2023/04/04 00:54:36;;;;;;;2.92;1.70;;;;;;;7.87;100.00;93179.50;5099745;28;20202;-75
2023/04/04 00:57:04;;;;;;;3.70;1.88;;;;;;;7.84;100.00;93181.75;5101993;28;20209;-77
2023/04/04 00:59:32;;;;;;;2.15;1.75;;;;;;;7.85;100.00;93183.31;5097443;28;20204;-77
2023/04/04 01:02:00;;;;;;;5.30;2.85;;;;;;;7.87;100.00;93184.88;5091543;28;21059;-76
2023/04/04 01:04:28;;;;;;;3.15;2.00;;;;;;;7.90;100.00;93181.50;5098090;28;20835;-75
2023/04/04 01:06:55;;;;;;;2.80;2.15;;;;;;;7.94;100.00;93191.22;5074460;28;20237;-76
2023/04/04 01:09:22;;;;;;;3.38;2.58;;;;;;;7.94;100.00;93190.44;5099130;28;20225;-75
2023/04/04 01:11:50;;;;;;;2.47;2.28;;;;;;;8.03;100.00;93193.78;5094287;28;20755;-74
2023/04/04 01:14:17;;;;;;;3.30;1.80;;;;;;;7.98;100.00;93191.31;5096965;28;20210;-73
2023/04/04 01:16:44;;;;;;;3.58;2.70;;;;;;;7.92;100.00;93192.72;5105361;28;20278;-74
2023/04/04 01:19:19;;;;;;;2.83;2.03;;;;;;;7.88;100.00;93202.63;5096123;28;20206;-75
2023/04/04 01:21:46;;;;;;;2.15;1.85;;;;;;;7.83;100.00;93195.56;5101194;28;20258;-73
2023/04/04 01:24:16;;;;;;;1.88;1.60;;;;;;;7.78;100.00;93193.91;5087668;28;20207;-74
2023/04/04 01:26:45;;;;;;;2.33;1.40;;;;;;;7.80;100.00;93196.25;5085744;28;20682;-74
2023/04/04 01:29:12;;;;;;;2.78;2.22;;;;;;;7.82;100.00;93199.38;5098605;28;20222;-73
2023/04/04 01:31:42;;;;;;;2.33;1.30;;;;;;;7.64;100.00;93201.63;5099991;28;20703;-74
2023/04/04 01:34:13;;;;;;;4.10;2.70;;;;;;;7.63;100.00;93205.44;5101024;28;20270;-74
2023/04/04 01:36:48;;;;;;;2.45;2.08;;;;;;;7.59;100.00;93201.06;5085953;28;20653;-73
2023/04/04 01:39:21;;;;;;;2.92;2.22;;;;;;;7.57;100.00;93198.72;5077167;28;20215;-74
2023/04/04 01:41:50;;;;;;;3.28;1.90;;;;;;;7.33;100.00;93194.22;5096337;28;20702;-73
2023/04/04 01:44:18;;;;;;;2.00;1.48;;;;;;;7.17;100.00;93182.59;5101055;28;20665;-75
2023/04/04 01:46:45;;;;;;;1.67;1.27;;;;;;;7.18;100.00;93183.38;5103378;28;20197;-74
2023/04/04 01:49:11;;;;;;;2.33;1.52;;;;;;;7.10;100.00;93163.56;5087952;28;20215;-73
2023/04/04 01:51:39;;;;;;;2.00;1.42;;;;;;;7.07;100.00;93165.03;5096234;28;20362;-75
2023/04/04 01:54:06;;;;;;;1.40;1.10;;;;;;;7.02;100.00;93146.41;5087577;28;20264;-76
2023/04/04 01:56:32;;;;;;;1.35;1.02;;;;;;;7.01;100.00;93152.91;5096722;28;20577;-76
2023/04/04 01:59:01;;;;;;;1.42;1.13;;;;;;;7.05;100.00;93158.41;5097728;28;20201;-75
2023/04/04 02:01:27;;;;;;;2.45;1.38;;;;;;;6.98;100.00;93158.97;5099333;28;20263;-76
2023/04/04 02:03:54;;;;;;;2.25;1.13;;;;;;;7.01;100.00;93154.81;5105296;28;20221;-75
2023/04/04 02:06:21;;;;;;;2.05;1.08;;;;;;;6.98;100.00;93156.28;5104549;28;20227;-76
2023/04/04 02:08:48;;;;;;;0.82;0.82;;;;;;;7.01;100.00;93166.38;5085368;28;20841;-76
2023/04/04 02:11:15;;;;;;;1.00;0.68;;;;;;;6.98;100.00;93156.28;5097877;28;20225;-76
2023/04/04 02:13:43;;;;;;;1.45;1.13;;;;;;;6.97;100.00;93157.41;5084872;28;20230;-76
2023/04/04 02:16:11;;;;;;;1.50;1.00;;;;;;;6.96;100.00;93142.41;5097390;28;20754;-76
2023/04/04 02:18:37;;;;;;;1.45;0.93;;;;;;;6.96;100.00;93153.16;5104972;28;20263;-77
2023/04/04 02:21:04;;;;;;;0.88;0.68;;;;;;;6.94;100.00;93155.41;5104509;28;20197;-75
2023/04/04 02:23:31;;;;;;;0.45;0.40;;;;;;;6.92;100.00;93144.19;5078208;28;20202;-75
2023/04/04 02:25:58;;;;;;;0.60;0.60;;;;;;;6.91;100.00;93147.22;5077899;28;20269;-77
2023/04/04 02:28:25;;;;;;;0.40;0.40;;;;;;;6.93;100.00;93143.06;5104290;28;20198;-76
2023/04/04 02:30:52;;;;;;;0.60;0.60;;;;;;;6.93;100.00;93148.47;5091590;28;20229;-76
2023/04/04 02:33:21;;;;;;;0.30;0.30;;;;;;;6.93;100.00;93153.84;5103421;28;20317;-78
2023/04/04 02:35:47;;;;;;;0.45;0.45;;;;;;;6.92;100.00;93151.50;5105017;28;20197;-76
2023/04/04 02:38:14;;;;;;;0.70;0.70;;;;;;;6.93;100.00;93151.16;5090875;28;20198;-75
2023/04/04 02:40:41;;;;;;;1.00;0.65;;;;;;;6.94;100.00;93149.25;5104029;28;20258;-76
2023/04/04 02:43:08;;;;;;;0.65;0.52;;;;;;;6.97;100.00;93149.31;5099392;28;20236;-77
2023/04/04 02:45:34;;;;;;;0.40;0.40;;;;;;;7.03;100.00;93145.28;5097520;28;20607;-76
2023/04/04 02:48:02;;;;;;;0.57;0.57;;;;;;;7.03;100.00;93147.19;5091835;28;20247;-76
2023/04/04 02:50:30;;;;;;;1.75;0.60;;;;;;;7.09;100.00;93157.38;5102034;28;20205;-77
2023/04/04 02:53:00;;;;;;;0.65;0.55;;;;;;;7.08;100.00;93145.06;5080611;28;20236;-77
2023/04/04 02:55:26;;;;;;;0.50;0.50;;;;;;;7.03;100.00;93147.97;5079811;28;20214;-76
2023/04/04 02:57:53;;;;;;;0.65;0.60;;;;;;;7.01;100.00;93154.81;5099410;28;20202;-77
2023/04/04 03:00:20;;;;;;;0.30;0.30;;;;;;;7.06;100.00;93158.06;5103730;28;20203;-76
2023/04/04 03:02:53;;;;;;;0.40;0.40;;;;;;;7.13;100.00;93157.47;5100152;28;20229;-76
2023/04/04 03:05:20;;;;;;;1.50;1.10;;;;;;;7.09;100.00;93159.28;5097015;28;20201;-76
2023/04/04 03:07:48;;;;;;;0.35;0.35;;;;;;;7.07;100.00;93154.25;5099909;27;20210;-76
2023/04/04 03:10:15;;;;;;;0.52;0.50;;;;;;;7.08;100.00;93161.19;5103726;28;20226;-75
2023/04/04 03:12:42;;;;;;;1.13;0.63;;;;;;;7.05;100.00;93156.50;5101239;28;20233;-75
2023/04/04 03:15:09;;;;;;;1.23;0.70;;;;;;;7.07;100.00;93159.63;5096603;28;20317;-76
2023/04/04 03:17:36;;;;;;;0.63;0.50;;;;;;;7.12;100.00;93162.06;5098869;28;20234;-75
2023/04/04 03:20:03;;;;;;;0.80;0.80;;;;;;;7.10;100.00;93164.34;5103704;28;20546;-76
2023/04/04 03:22:30;;;;;;;0.57;0.50;;;;;;;7.11;100.00;93165.88;5090015;28;20293;-76
2023/04/04 03:24:58;;;;;;;0.65;0.60;;;;;;;7.10;100.00;93158.97;5090114;28;20198;-75
2023/04/04 03:27:25;;;;;;;0.73;0.65;;;;;;;7.19;100.00;93163.41;5102503;28;20198;-75
2023/04/04 03:29:52;;;;;;;0.85;0.80;;;;;;;7.30;100.00;93159.09;5090158;28;20198;-75
2023/04/04 03:32:18;;;;;;;0.63;0.60;;;;;;;7.27;100.00;93165.16;5102655;28;20337;-75
2023/04/04 03:34:45;;;;;;;1.55;1.13;;;;;;;7.27;100.00;93168.63;5084161;28;20688;-75
2023/04/04 03:37:12;;;;;;;1.17;0.95;;;;;;;7.24;100.00;93173.94;5082179;28;20198;-75
2023/04/04 03:39:39;;;;;;;2.22;1.15;;;;;;;7.33;100.00;93177.28;5069990;28;20695;-75
2023/04/04 03:42:07;;;;;;;2.72;1.33;;;;;;;7.35;100.00;93169.63;5096442;28;20590;-75
2023/04/04 03:44:35;;;;;;;1.63;1.10;;;;;;;7.30;100.00;93162.56;5096306;28;20194;-74
2023/04/04 03:47:02;;;;;;;1.50;1.20;;;;;;;7.34;100.00;93162.69;5096707;28;20206;-73
2023/04/04 03:49:28;;;;;;;1.95;1.13;;;;;;;7.40;100.00;93169.38;5096571;28;20202;-74
2023/04/04 03:51:55;;;;;;;0.90;0.73;;;;;;;7.37;100.00;93157.41;5082311;28;20214;-76
2023/04/04 03:54:22;;;;;;;1.27;1.02;;;;;;;7.47;100.00;93166.88;5096562;28;20221;-75
2023/04/04 03:56:49;;;;;;;1.00;0.90;;;;;;;7.52;100.00;93173.94;5095589;28;20209;-74
2023/04/04 03:59:17;;;;;;;3.88;1.77;;;;;;;7.61;100.00;93166.50;5083283;28;20727;-75
2023/04/04 04:01:44;;;;;;;2.50;1.17;;;;;;;7.58;100.00;93167.94;5096152;28;20195;-74
2023/04/04 04:04:10;;;;;;;3.60;1.77;;;;;;;7.69;100.00;93173.63;5101683;28;20212;-74
2023/04/04 04:06:37;;;;;;;3.22;1.95;;;;;;;7.52;100.00;93168.56;5103000;28;20254;-75
2023/04/04 04:09:04;;;;;;;1.92;1.20;;;;;;;7.48;100.00;93165.75;5080305;28;20284;-74
2023/04/04 04:11:31;;;;;;;1.48;1.17;;;;;;;7.56;100.00;93170.22;5097143;28;20632;-73
2023/04/04 04:13:59;;;;;;;2.70;1.20;;;;;;;7.52;100.00;93166.63;5087833;28;20711;-73
2023/04/04 04:16:27;;;;;;;1.73;1.25;;;;;;;7.57;100.00;93169.06;5088636;28;20226;-74
2023/04/04 04:18:54;;;;;;;2.28;1.60;;;;;;;7.57;100.00;93174.47;5088353;28;20275;-75
2023/04/04 04:21:21;;;;;;;3.05;1.45;;;;;;;7.49;100.00;93165.44;5091633;28;20198;-75
2023/04/04 04:23:47;;;;;;;3.00;1.70;;;;;;;7.55;100.00;93171.34;5085969;28;20194;-75
2023/04/04 04:26:14;;;;;;;3.28;2.10;;;;;;;7.66;100.00;93183.16;5088257;28;20248;-75
2023/04/04 04:28:41;;;;;;;2.10;1.85;;;;;;;7.79;100.00;93184.69;5108027;28;20628;-75
2023/04/04 04:31:09;;;;;;;4.65;1.92;;;;;;;7.81;100.00;93192.41;5090940;28;20323;-75
2023/04/04 04:33:37;;;;;;;3.30;2.15;;;;;;;7.90;100.00;93190.38;5098915;28;20225;-76
2023/04/04 04:36:05;;;;;;;4.57;2.33;;;;;;;7.81;100.00;93193.19;5087514;28;20202;-76
2023/04/04 04:38:32;;;;;;;5.22;3.03;;;;;;;7.85;100.00;93193.31;5088371;28;20298;-77
2023/04/04 04:41:00;;;;;;;4.50;2.60;;;;;;;7.62;100.00;93198.47;5087534;28;20199;-75
2023/04/04 04:43:27;;;;;;;4.22;2.03;;;;;;;7.68;100.00;93199.78;5087371;28;20874;-76
2023/04/04 04:45:54;;;;;;;3.90;2.50;;;;;;;7.78;100.00;93203.91;5091979;28;20194;-76
2023/04/04 04:48:21;;;;;;;3.38;2.70;;;;;;;7.89;100.00;93196.09;5087245;28;20198;-76
2023/04/04 04:50:49;;;;;;;4.45;2.58;;;;;;;8.08;100.00;93201.59;5087394;28;20218;-76
2023/04/04 04:53:16;;;;;;;3.97;2.70;;;;;;;8.09;100.00;93213.94;5087404;28;20226;-76
2023/04/04 04:55:43;;;;;;;4.82;2.80;;;;;;;8.04;100.00;93215.00;5087282;28;20201;-75
2023/04/04 04:58:10;;;;;;;5.53;2.78;;;;;;;7.98;100.00;93207.50;5086703;28;20202;-75
2023/04/04 05:00:37;;;;;;;5.13;2.72;;;;;;;7.96;100.00;93215.94;5086472;28;20713;-75
2023/04/04 05:03:06;;;;;;;3.95;2.72;;;;;;;8.17;100.00;93218.41;5084291;28;20219;-76
2023/04/04 05:05:33;;;;;;;4.53;2.65;;;;;;;8.09;100.00;93222.03;5086488;28;20645;-76
2023/04/04 05:08:02;;;;;;;4.97;3.03;;;;;;;7.99;100.00;93222.56;5086772;28;20230;-76
2023/04/04 05:10:29;;;;;;;4.15;3.22;;;;;;;8.03;100.00;93218.03;5087789;28;20201;-76
2023/04/04 05:12:56;;;;;;;4.47;2.50;;;;;;;8.30;100.00;93221.81;5084192;28;20225;-77
2023/04/04 05:15:24;;;;;;;5.63;3.00;;;;;;;8.42;100.00;93227.94;5086740;28;20712;-76
2023/04/04 05:17:52;;;;;;;5.50;2.90;;;;;;;8.48;100.00;93231.91;5086520;28;20198;-75
2023/04/04 05:20:19;;;;;;;4.45;2.92;;;;;;;8.61;100.00;93229.16;5086500;28;20200;-75
2023/04/04 05:22:46;;;;;;;6.07;3.40;;;;;;;8.77;100.00;93240.72;5089652;28;20268;-75
2023/04/04 05:25:14;;;;;;;7.28;3.38;;;;;;;9.10;100.00;93241.09;5085359;28;20251;-76
2023/04/04 05:27:41;;;;;;;6.00;3.47;;;;;;;9.35;100.00;93232.75;5084193;28;20202;-76
2023/04/04 05:30:09;;;;;;;6.32;3.70;;;;;;;9.34;100.00;93234.66;5085167;28;20194;-75
2023/04/04 05:32:36;;;;;;;5.10;3.10;;;;;;;8.95;98.17;93241.91;5088358;28;20201;-75
2023/04/04 05:35:02;;;;;;;4.47;3.45;;;;;;;9.13;98.60;93243.09;5086435;28;20201;-76
2023/04/04 05:37:29;;;;;;;4.90;3.13;;;;;;;9.13;98.52;93247.72;5086966;28;20247;-75
2023/04/04 05:39:56;;;;;;;7.20;3.28;;;;;;;9.17;99.49;93241.25;5086303;28;20206;-75
2023/04/04 05:42:24;;;;;;;5.53;3.25;;;;;;;9.43;98.21;93237.19;5087955;28;20614;-75
2023/04/04 05:44:51;;;;;;;8.30;4.18;;;;;;;9.41;97.60;93242.16;5082048;28;20206;-76
2023/04/04 05:47:20;;;;;;;5.07;3.58;;;;;;;9.23;98.42;93233.66;5086549;28;20212;-75
2023/04/04 05:49:47;;;;;;;5.15;3.40;;;;;;;9.23;98.05;93242.56;5086390;28;20194;-75
2023/04/04 05:52:13;;;;;;;7.70;4.28;;;;;;;9.11;98.29;93258.09;5087338;28;20201;-75
2023/04/04 05:54:40;;;;;;;7.70;3.95;;;;;;;9.03;98.78;93254.44;5085831;28;20968;-75
2023/04/04 05:57:07;;;;;;;5.90;3.78;;;;;;;9.05;99.14;93249.47;5086348;28;20252;-77
2023/04/04 05:59:35;;;;;;;8.02;4.70;;;;;;;9.32;98.94;93252.38;5086616;28;20199;-77
2023/04/04 06:02:02;;;;;;;9.15;4.55;;;;;;;9.60;98.59;93252.97;5083496;28;20229;-76
2023/04/04 06:04:28;;;;;;;8.60;4.28;;;;;;;9.55;97.05;93247.88;5086799;28;20240;-77
2023/04/04 06:06:55;;;;;;;8.02;5.57;;;;;;;9.87;97.37;93251.97;5086623;28;20228;-77
2023/04/04 06:09:22;;;;;;;8.15;4.63;;;;;;;9.95;95.04;93259.13;5083495;28;20283;-77
2023/04/04 06:11:49;;;;;;;7.82;4.95;;;;;;;10.34;94.16;93253.69;5086298;28;20214;-77
2023/04/04 06:14:16;;;;;;;8.13;4.93;;;;;;;10.04;93.43;93255.41;5086032;28;20226;-78
2023/04/04 06:16:44;;;;;;;10.48;5.70;;;;;;;10.01;95.28;93261.50;5086300;28;20283;-77
2023/04/04 06:19:10;;;;;;;8.38;4.97;;;;;;;10.15;95.02;93257.16;5086021;28;20191;-76
2023/04/04 06:21:37;;;;;;;7.75;4.80;;;;;;;10.35;93.70;93255.25;5089934;28;20187;-76
2023/04/04 06:24:04;;;;;;;12.00;5.40;;;;;;;10.64;93.23;93249.19;5086033;28;21023;-77
2023/04/04 06:26:31;;;;;;;5.72;3.25;;;;;;;10.32;91.61;93261.38;5083536;28;20715;-76
2023/04/04 06:28:57;;;;;;;4.88;3.25;;;;;;;9.99;92.94;93264.56;5089506;28;20226;-76
2023/04/04 06:31:24;;;;;;;11.60;4.32;;;;;;;10.10;92.84;93275.63;5087897;28;20770;-77
2023/04/04 06:33:52;;;;;;;10.07;5.40;;;;;;;9.90;94.61;93274.84;5090688;28;20813;-76
2023/04/04 06:36:20;;;;;;;7.35;4.07;;;;;;;9.89;93.99;93284.88;5097167;28;20840;-77
2023/04/04 06:38:46;;;;;;;9.05;4.90;;;;;;;9.93;93.80;93282.25;5089835;28;20252;-75
2023/04/04 06:41:13;;;;;;;7.85;4.07;;;;;;;9.75;93.28;93289.19;5085942;28;20381;-76
2023/04/04 06:43:40;;;;;;;4.85;3.50;;;;;;;9.50;94.73;93291.38;5089098;28;20264;-77
2023/04/04 06:46:07;;;;;;;8.35;4.57;;;;;;;9.16;97.74;93298.31;5104495;28;20736;-76
2023/04/04 06:48:33;;;;;;;3.60;2.15;;;;;;;8.14;95.78;93310.78;5103144;28;20687;-76
2023/04/04 06:51:05;;;;;;;1.20;1.10;;;;;;;7.48;97.29;93319.31;5097068;28;20201;-77
2023/04/04 06:53:31;;;;;;;1.10;1.00;;;;;;;7.21;97.51;93325.41;5098083;28;20233;-76
2023/04/04 06:55:58;;;;;;;2.15;1.60;;;;;;;6.79;96.66;93331.03;5096565;28;21051;-76
2023/04/04 06:58:25;;;;;;;1.55;1.23;;;;;;;6.71;97.66;93334.59;5098340;28;20206;-75
2023/04/04 07:00:52;;;;;;;1.50;1.25;;;;;;;6.72;96.57;93352.31;5104718;28;20255;-77
2023/04/04 07:03:19;;;;;;;1.17;0.95;;;;;;;6.50;94.26;93368.88;5090731;28;20297;-77
2023/04/04 07:05:46;;;;;;;1.23;0.90;;;;;;;6.31;94.26;93380.13;5083791;28;20205;-76
2023/04/04 07:08:14;;;;;;;0.70;0.60;;;;;;;5.90;94.49;93391.72;5097128;28;20321;-77
2023/04/04 07:10:41;;;;;;;0.98;0.40;;;;;;;5.91;95.27;93404.03;5103448;28;20259;-77
2023/04/04 07:13:08;;;;;;;0.40;0.40;;;;;;;5.71;92.98;93410.97;5103984;28;20262;-75
2023/04/04 07:15:35;;;;;;;0.40;0.40;;;;;;;5.65;94.30;93413.03;5097730;28;20234;-77
2023/04/04 07:18:01;;;;;;;1.17;0.80;;;;;;;5.62;93.95;93419.06;5096965;28;20206;-76
2023/04/04 07:20:28;;;;;;;0.47;0.47;;;;;;;5.69;94.46;93431.97;5108980;28;20198;-76
2023/04/04 07:22:55;;;;;;;2.78;0.68;;;;;;;5.42;92.90;93424.41;5096141;28;20279;-76
2023/04/04 07:25:23;;;;;;;0.95;0.43;;;;;;;5.33;92.80;93424.44;5098844;28;20678;-77
2023/04/04 07:27:52;;;;;;;0.43;0.40;;;;;;;5.35;92.90;93432.94;5096365;28;20669;-77
2023/04/04 07:30:18;;;;;;;1.35;0.80;;;;;;;5.45;93.19;93429.91;5100571;28;20255;-76
2023/04/04 07:32:46;;;;;;;1.15;0.70;;;;;;;5.53;92.96;93439.03;5103743;28;20283;-75
2023/04/04 07:35:13;;;;;;;0.45;0.45;;;;;;;5.42;91.37;93437.84;5089348;28;20237;-76
2023/04/04 07:37:40;;;;;;;0.30;0.30;;;;;;;5.34;90.46;93440.22;5076347;28;20210;-75
2023/04/04 07:40:08;;;;;;;0.98;0.55;;;;;;;5.29;90.80;93459.22;5094210;28;20206;-76
2023/04/04 07:42:36;;;;;;;0.90;0.50;;;;;;;5.21;90.19;93460.03;5093340;28;20206;-76
2023/04/04 07:45:03;;;;;;;0.80;0.68;;;;;;;5.12;89.75;93447.75;5098894;28;20661;-75
2023/04/04 07:47:30;;;;;;;0.40;0.40;;;;;;;4.82;89.40;93439.66;5103229;28;20206;-76
2023/04/04 07:49:57;;;;;;;0.30;0.30;;;;;;;4.99;89.25;93463.75;5079031;28;20210;-76
2023/04/04 07:52:24;;;;;;;1.85;0.57;;;;;;;4.96;89.75;93460.91;5104670;28;20664;-76
2023/04/04 07:54:51;;;;;;;0.60;0.40;;;;;;;4.96;90.27;93456.34;5098467;28;20708;-77
2023/04/04 07:57:17;;;;;;;0.50;0.40;;;;;;;5.07;89.84;93466.72;5102523;28;20198;-76
2023/04/04 07:59:46;;;;;;;1.95;0.93;;;;;;;5.12;89.16;93474.59;5100243;28;20205;-75
2023/04/04 08:02:12;;;;;;;0.40;0.40;;;;;;;5.09;88.92;93477.91;5105181;28;20773;-76
2023/04/04 08:04:39;;;;;;;1.42;0.50;;;;;;;5.04;88.55;93488.84;5091038;28;20247;-77
2023/04/04 08:07:06;;;;;;;0.98;0.77;;;;;;;5.11;88.40;93489.13;5091999;28;20194;-76
2023/04/04 08:09:35;;;;;;;1.35;0.90;;;;;;;4.99;88.47;93490.59;5095958;28;20273;-76
2023/04/04 08:12:02;;;;;;;0.65;0.65;;;;;;;5.10;88.27;93490.22;5088609;28;20576;-77
2023/04/04 08:14:29;;;;;;;0.52;0.52;;;;;;;4.88;88.26;93481.31;5089041;28;20238;-76
2023/04/04 08:16:57;;;;;;;0.75;0.50;;;;;;;5.14;88.55;93491.97;5095695;28;20230;-76
2023/04/04 08:19:24;;;;;;;3.83;0.50;;;;;;;4.99;87.85;93490.59;5080721;28;21003;-76
2023/04/04 08:21:50;;;;;;;0.77;0.50;;;;;;;4.98;88.27;93513.16;5088830;28;20202;-75
2023/04/04 08:24:18;;;;;;;0.60;0.50;;;;;;;5.06;88.55;93510.78;5085963;28;20214;-75
2023/04/04 08:26:44;;;;;;;1.33;0.60;;;;;;;4.88;88.26;93513.50;5083305;28;20198;-75
2023/04/04 08:29:11;;;;;;;0.68;0.68;;;;;;;4.97;88.29;93525.00;5088737;28;20194;-75
2023/04/04 08:31:39;;;;;;;1.05;0.95;;;;;;;4.87;87.82;93522.66;5101328;28;20281;-75
2023/04/04 08:34:07;;;;;;;0.52;0.52;;;;;;;5.00;88.63;93527.03;5088328;28;20222;-77
2023/04/04 08:36:34;;;;;;;0.35;0.35;;;;;;;4.76;88.21;93534.03;5096170;28;20875;-76
2023/04/04 08:39:01;;;;;;;0.98;0.50;;;;;;;4.77;88.79;93514.16;5094232;28;20252;-75
2023/04/04 08:41:30;;;;;;;0.85;0.43;;;;;;;4.78;90.00;93546.03;5087940;28;20209;-75
2023/04/04 08:44:00;;;;;;;0.68;0.55;;;;;;;4.50;89.92;93523.34;5103022;28;20801;-75
2023/04/04 08:46:27;;;;;;;0.57;0.50;;;;;;;4.46;89.50;93527.75;5108649;28;20205;-76
2023/04/04 08:48:56;;;;;;;0.93;0.82;;;;;;;4.55;90.21;93537.34;5095190;28;20259;-76
2023/04/04 08:51:26;;;;;;;1.10;1.00;;;;;;;4.45;88.60;93526.16;5098813;28;20204;-77
2023/04/04 08:53:55;;;;;;;1.13;1.00;;;;;;;4.29;89.12;93548.09;5102420;28;20275;-77
2023/04/04 08:56:23;;;;;;;3.85;1.15;;;;;;;4.40;90.23;93553.13;5098112;28;20197;-76
2023/04/04 08:58:50;;;;;;;0.60;0.50;;;;;;;4.34;88.68;93559.75;5095276;28;20224;-77
2023/04/04 09:01:17;;;;;;;1.33;0.73;;;;;;;4.36;89.61;93554.88;5095104;28;20868;-78
2023/04/04 09:03:45;;;;;;;1.58;1.02;;;;;;;4.32;89.74;93559.28;5080518;28;20239;-76
2023/04/04 09:06:12;;;;;;;0.60;0.60;;;;;;;4.56;90.54;93564.97;5083230;28;20269;-75
2023/04/04 09:08:41;;;;;;;0.90;0.68;;;;;;;4.45;89.06;93569.06;5080168;28;20272;-76
2023/04/04 09:11:09;;;;;;;0.55;0.52;;;;;;;4.35;89.16;93558.66;5086769;28;20222;-76
2023/04/04 09:13:37;;;;;;;0.85;0.85;;;;;;;4.28;89.33;93567.16;5089456;28;20194;-77
2023/04/04 09:16:04;;;;;;;0.68;0.60;;;;;;;4.41;89.74;93573.47;5086926;28;20627;-76
2023/04/04 09:18:31;;;;;;;0.95;0.68;;;;;;;4.35;89.92;93558.66;5086845;28;20652;-75
2023/04/04 09:20:57;;;;;;;0.63;0.63;;;;;;;4.47;90.06;93561.50;5087453;28;20198;-76
2023/04/04 09:23:24;;;;;;;0.60;0.60;;;;;;;4.50;90.38;93566.25;5087436;28;20649;-74
2023/04/04 09:25:53;;;;;;;0.50;0.50;;;;;;;4.55;88.52;93558.81;5100684;28;20201;-77
2023/04/04 09:28:22;;;;;;;1.42;0.60;;;;;;;4.47;87.45;93564.19;5093546;28;20201;-75
2023/04/04 09:30:49;;;;;;;0.77;0.77;;;;;;;4.67;88.98;93579.63;5076553;28;20203;-75
2023/04/04 09:33:17;;;;;;;0.80;0.73;;;;;;;4.56;87.65;93570.31;5067154;28;20294;-75
2023/04/04 09:35:46;;;;;;;0.70;0.70;;;;;;;4.28;86.22;93581.34;5094967;28;20242;-75
2023/04/04 09:38:14;;;;;;;0.80;0.80;;;;;;;4.12;86.42;93580.22;5092865;28;20262;-74
2023/04/04 09:40:42;;;;;;;1.65;1.00;;;;;;;4.25;86.51;93571.25;5093854;28;20919;-74
2023/04/04 09:43:12;;;;;;;1.45;1.23;;;;;;;4.33;88.49;93583.09;5100847;28;20237;-77
2023/04/04 09:45:41;;;;;;;0.88;0.60;;;;;;;4.83;87.32;93574.56;5089507;28;20271;-76
2023/04/04 09:48:09;;;;;;;0.85;0.80;;;;;;;4.94;90.15;93567.75;5108962;28;20205;-75
2023/04/04 09:50:36;;;;;;;0.93;0.70;;;;;;;5.04;86.85;93577.41;5094257;28;20195;-76
2023/04/04 09:53:03;;;;;;;0.88;0.77;;;;;;;4.83;84.00;93574.56;5098968;28;20218;-79
2023/04/04 09:55:35;;;;;;;0.70;0.70;;;;;;;4.85;83.95;93583.09;5084293;28;20230;-75
2023/04/04 09:58:14;;;;;;;0.57;0.50;;;;;;;4.79;83.87;93571.72;5078021;28;20293;-75
2023/04/04 10:00:46;;;;;;;1.55;0.73;;;;;;;5.08;85.07;93575.63;5085225;28;20194;-74
2023/04/04 10:03:14;;;;;;;1.48;0.77;;;;;;;5.51;84.00;93564.78;5090668;28;20668;-77
2023/04/04 10:05:41;;;;;;;0.70;0.70;;;;;;;5.41;83.71;93579.34;5083884;28;20191;-75
2023/04/04 10:08:15;;;;;;;0.47;0.47;;;;;;;5.68;84.24;93573.56;5090563;28;20218;-76
2023/04/04 10:10:47;;;;;;;0.57;0.52;;;;;;;5.52;82.01;93585.94;5069735;28;20221;-77
2023/04/04 10:13:23;;;;;;;0.70;0.70;;;;;;;5.44;84.23;93589.47;5087241;28;20256;-77
2023/04/04 10:15:52;;;;;;;0.65;0.65;;;;;;;5.29;82.96;93585.41;5079424;28;20230;-77
2023/04/04 10:18:20;;;;;;;0.65;0.65;;;;;;;5.37;85.22;93594.53;5106259;28;20205;-79
2023/04/04 10:20:49;;;;;;;0.70;0.70;;;;;;;5.45;84.35;93595.63;5101279;28;20202;-77
2023/04/04 10:23:16;;;;;;;1.35;0.77;;;;;;;5.36;85.69;93603.69;5078456;28;20614;-75
2023/04/04 10:25:43;;;;;;;0.85;0.75;;;;;;;5.19;82.43;93593.78;5093190;28;20202;-72
2023/04/04 10:28:10;;;;;;;0.50;0.50;;;;;;;4.84;82.75;93582.31;5109365;28;20609;-73
2023/04/04 10:30:43;;;;;;;0.68;0.60;;;;;;;4.98;83.56;93611.66;5106906;28;20201;-75
2023/04/04 10:33:19;;;;;;;0.70;0.70;;;;;;;5.03;84.42;93626.81;5089343;28;20207;-76
2023/04/04 10:35:51;;;;;;;0.50;0.50;;;;;;;5.04;83.64;93623.03;5079172;28;20668;-79
2023/04/04 10:38:24;;;;;;;0.70;0.70;;;;;;;5.11;84.02;93623.31;5089831;28;20255;-78
2023/04/04 10:40:53;;;;;;;1.45;0.85;;;;;;;4.82;83.22;93632.81;5075267;28;20663;-79
2023/04/04 10:43:27;;;;;;;0.73;0.73;;;;;;;4.58;83.17;93621.75;5090075;28;20206;-78
2023/04/04 10:46:00;;;;;;;3.95;0.73;;;;;;;4.45;82.80;93628.03;5099594;28;20218;-78
2023/04/04 10:48:27;;;;;;;0.60;0.60;;;;;;;4.67;83.47;93627.91;5101751;28;20644;-75
2023/04/04 10:50:56;;;;;;;1.10;0.65;;;;;;;4.62;81.35;93638.81;5096913;28;20301;-76
2023/04/04 10:53:23;;;;;;;1.45;0.90;;;;;;;4.65;80.85;93628.22;5097811;28;20206;-77
2023/04/04 10:55:50;;;;;;;0.70;0.70;;;;;;;4.64;82.09;93647.31;5098846;28;20226;-76
2023/04/04 10:58:17;;;;;;;0.50;0.50;;;;;;;4.57;80.67;93642.41;5087350;28;20204;-75
2023/04/04 11:00:51;;;;;;;0.93;0.82;;;;;;;4.61;80.61;93642.59;5095026;28;20267;-77
2023/04/04 11:03:19;;;;;;;0.63;0.63;;;;;;;4.55;80.86;93638.47;5089341;28;20200;-79
2023/04/04 11:05:47;;;;;;;0.80;0.63;;;;;;;4.60;81.32;93641.00;5079002;28;20743;-75
2023/04/04 11:08:18;;;;;;;2.78;0.70;;;;;;;4.72;81.41;93645.75;5089676;28;20230;-75
2023/04/04 11:10:47;;;;;;;1.10;0.90;;;;;;;4.81;80.41;93646.53;5089664;28;20277;-74
2023/04/04 11:13:17;;;;;;;0.57;0.57;;;;;;;4.48;80.26;93659.59;5089487;28;20278;-75
2023/04/04 11:15:53;;;;;;;1.20;0.80;;;;;;;4.60;80.27;93657.88;5088915;28;20222;-73
2023/04/04 11:18:22;;;;;;;0.77;0.77;;;;;;;4.68;81.23;93664.34;5092768;28;20202;-74
2023/04/04 11:20:49;;;;;;;1.33;1.20;;;;;;;4.80;79.53;93661.81;5090816;28;20198;-74
2023/04/04 11:23:19;;;;;;;0.98;0.88;;;;;;;4.78;80.12;93658.69;5084328;28;20230;-75
2023/04/04 11:25:53;;;;;;;0.60;0.60;;;;;;;4.85;80.10;93648.28;5080313;28;20201;-74
2023/04/04 11:28:28;;;;;;;1.02;0.82;;;;;;;4.81;80.07;93663.41;5091029;28;20212;-73
2023/04/04 11:31:28;;;;;;;0.82;0.82;;;;;;;4.80;79.10;93663.72;5102755;28;20197;-75
2023/04/04 11:34:03;;;;;;;1.27;1.10;;;;;;;4.81;79.55;93670.66;5077476;28;20198;-73
2023/04/04 11:36:50;;;;;;;0.75;0.70;;;;;;;4.81;78.43;93663.41;5081202;28;20673;-75
2023/04/04 11:39:24;;;;;;;1.15;0.88;;;;;;;4.73;79.52;93666.09;5092851;28;20200;-76